Terminal Aerodrome Forecast
Issued by NWS Duluth, MN

Home | Current Version | Previous Version | Text Only | Print | Product List | Glossary On
Versions: 1 2 3 4 5 6 7 8 9 10 11 12 13 14 15 16 17 18 19 20 21
000
FTUS43 KDLH 201143
TAFDLH
TAF
KDLH 201143Z 2012/2112 18007KT P6SM BKN150
     FM210200 20010KT P6SM SCT150 WS020/28045KT
     FM210600 28013G22KT P6SM BKN020 OVC030
     FM211000 29020G30KT P6SM SCT015 BKN035=

USA.gov is the U.S. government's official web portal to all federal, state and local government web resources and services.